createdAt,value
2019-04-14T00:02:33.737Z,27.09
2019-04-14T00:07:40.574Z,27.01
2019-04-14T00:12:47.374Z,27.80
2019-04-14T00:17:55.057Z,28.24
2019-04-14T00:23:02.638Z,28.27
2019-04-14T00:28:10.321Z,38.19
2019-04-14T00:33:19.160Z,31.08
2019-04-14T00:38:25.947Z,29.56
2019-04-14T00:43:33.052Z,30.49
2019-04-14T00:48:39.342Z,31.07
2019-04-14T00:53:46.945Z,30.74
2019-04-14T00:58:54.583Z,30.52
2019-04-14T01:04:03.386Z,30.82
2019-04-14T01:09:09.337Z,31.30
2019-04-14T01:14:16.963Z,32.12
2019-04-14T01:19:24.434Z,31.30
2019-04-14T01:24:31.550Z,42.12
2019-04-14T01:29:38.483Z,39.82
2019-04-14T01:34:45.556Z,31.63
2019-04-14T01:39:52.542Z,39.52
2019-04-14T01:44:59.961Z,41.94
2019-04-14T01:50:08.397Z,33.70
2019-04-14T01:55:15.426Z,32.80
2019-04-14T02:00:22.802Z,31.63
2019-04-14T02:05:29.981Z,32.23
2019-04-14T02:10:36.863Z,33.18
2019-04-14T02:15:44.267Z,42.69
2019-04-14T02:20:51.194Z,34.21
2019-04-14T02:25:57.952Z,33.66
2019-04-14T02:31:18.195Z,33.08
2019-04-14T02:36:40.277Z,32.82
2019-04-14T02:47:14.587Z,33.85
2019-04-14T02:51:56.628Z,33.85
2019-04-14T02:57:15.050Z,33.57
2019-04-14T03:02:23.225Z,35.31
2019-04-14T03:12:35.579Z,37.23
2019-04-14T03:17:36.822Z,37.11
2019-04-14T03:22:44.505Z,38.11
2019-04-14T03:27:54.812Z,37.36
2019-04-14T03:33:21.719Z,36.00
2019-04-14T03:48:44.871Z,32.55
2019-04-14T03:53:21.751Z,31.78
2019-04-14T03:58:08.212Z,31.34
2019-04-14T04:03:13.715Z,31.31
2019-04-14T04:08:22.351Z,30.68
2019-04-14T04:13:28.527Z,30.88
2019-04-14T04:18:47.302Z,31.47
2019-04-14T04:23:44.598Z,38.17
2019-04-14T04:28:50.441Z,30.68
2019-04-14T04:33:58.576Z,30.55
2019-04-14T04:39:06.011Z,30.93
2019-04-14T04:44:12.009Z,30.78
2019-04-14T04:49:23.065Z,30.70
2019-04-14T04:54:27.860Z,35.64
2019-04-14T04:59:34.295Z,29.98
2019-04-14T05:04:41.598Z,29.39
2019-04-14T05:09:49.086Z,28.94
2019-04-14T05:14:56.570Z,28.66
2019-04-14T05:20:03.185Z,28.33
2019-04-14T05:25:10.093Z,27.28
2019-04-14T05:30:17.581Z,32.66
2019-04-14T05:35:25.068Z,26.84
2019-04-14T05:40:32.662Z,32.28
2019-04-14T05:45:41.528Z,27.65
2019-04-14T05:50:47.454Z,26.88
2019-04-14T05:55:55.194Z,26.77
2019-04-14T06:01:02.765Z,26.64
2019-04-14T06:06:10.427Z,26.44
2019-04-14T06:11:18.028Z,30.45
2019-04-14T06:16:25.671Z,25.81
2019-04-14T06:21:33.266Z,25.55
2019-04-14T06:26:40.880Z,24.57
2019-04-14T06:31:48.486Z,24.61
2019-04-14T06:36:56.090Z,29.72
2019-04-14T06:42:03.689Z,24.43
2019-04-14T06:47:11.322Z,27.58
2019-04-14T06:52:18.930Z,22.46
2019-04-14T06:57:26.560Z,23.10
2019-04-14T07:02:34.143Z,23.27
2019-04-14T07:07:41.862Z,28.15
2019-04-14T07:12:49.461Z,22.45
2019-04-14T07:17:57.075Z,21.20
2019-04-14T07:23:04.667Z,24.89
2019-04-14T07:28:12.300Z,19.92
2019-04-14T07:33:19.909Z,20.66
2019-04-14T07:38:27.610Z,19.78
2019-04-14T07:43:35.213Z,19.26
2019-04-14T07:48:42.889Z,18.56
2019-04-14T07:53:50.475Z,18.60
2019-04-14T07:58:58.145Z,19.63
2019-04-14T08:04:05.749Z,21.18
2019-04-14T08:09:13.415Z,24.96
2019-04-14T08:14:21.018Z,23.27
2019-04-14T08:19:28.689Z,22.44
2019-04-14T08:24:36.271Z,19.54
2019-04-14T08:29:43.887Z,20.31
2019-04-14T08:34:51.476Z,20.41
2019-04-14T08:39:59.259Z,20.37
2019-04-14T08:45:06.839Z,18.33
2019-04-14T08:50:14.525Z,17.36
2019-04-14T08:55:22.111Z,16.21
2019-04-14T09:00:29.765Z,16.36
2019-04-14T09:05:37.374Z,15.64
2019-04-14T09:10:45.004Z,14.70
2019-04-14T09:15:52.604Z,15.55
2019-04-14T09:21:00.228Z,15.65
2019-04-14T09:26:07.857Z,15.19
2019-04-14T09:31:15.507Z,15.48
2019-04-14T09:36:23.110Z,13.55
2019-04-14T09:41:30.740Z,12.83
2019-04-14T09:46:38.341Z,11.55
2019-04-14T09:51:45.990Z,13.03
2019-04-14T09:56:53.583Z,12.48
2019-04-14T10:02:01.238Z,14.03
2019-04-14T10:07:08.845Z,14.56
2019-04-14T10:12:16.517Z,13.78
2019-04-14T10:17:24.119Z,13.20
2019-04-14T10:22:34.100Z,13.99
2019-04-14T10:27:38.924Z,15.08
2019-04-14T10:32:46.565Z,14.50
2019-04-14T10:37:54.148Z,14.09
2019-04-14T10:43:01.752Z,14.15
2019-04-14T10:48:09.339Z,14.31
2019-04-14T10:53:17.115Z,14.24
2019-04-14T10:58:24.716Z,13.98
2019-04-14T11:03:32.361Z,13.47
2019-04-14T11:08:39.952Z,13.98
2019-04-14T11:13:47.596Z,13.72
2019-04-14T11:18:55.177Z,14.92
2019-04-14T11:24:02.934Z,14.40
2019-04-14T11:29:10.489Z,14.31
2019-04-14T11:34:18.128Z,14.13
2019-04-14T11:39:25.737Z,15.77
2019-04-14T11:44:33.391Z,14.54
2019-04-14T11:49:40.980Z,14.33
2019-04-14T11:54:48.730Z,14.15
2019-04-14T11:59:56.400Z,13.44
2019-04-14T12:05:04.078Z,12.79
2019-04-14T12:10:11.723Z,13.24
2019-04-14T12:15:19.400Z,14.02
2019-04-14T12:20:26.995Z,13.38
2019-04-14T12:25:34.762Z,13.68
2019-04-14T12:30:42.349Z,13.65
2019-04-14T12:35:50.029Z,13.65
2019-04-14T12:41:00.178Z,13.94
2019-04-14T12:46:06.364Z,13.67
2019-04-14T12:51:12.013Z,14.44
2019-04-14T12:56:19.610Z,14.59
2019-04-14T13:01:27.213Z,14.70
2019-04-14T13:06:34.893Z,16.35
2019-04-14T13:11:42.501Z,16.41
2019-04-14T13:16:50.126Z,15.18
2019-04-14T13:21:57.746Z,16.05
2019-04-14T13:27:05.397Z,16.55
2019-04-14T13:32:12.984Z,16.02
2019-04-14T13:37:20.677Z,15.87
2019-04-14T13:42:28.235Z,16.15
2019-04-14T13:47:36.012Z,16.48
2019-04-14T13:52:46.916Z,15.92
2019-04-14T13:57:50.886Z,16.13
2019-04-14T14:02:58.539Z,16.79
2019-04-14T14:08:06.407Z,16.47
2019-04-14T14:13:14.216Z,16.40
2019-04-14T14:18:21.897Z,15.36
2019-04-14T14:23:29.547Z,15.40
2019-04-14T14:28:38.638Z,15.80
2019-04-14T14:33:45.417Z,15.68
2019-04-14T14:38:51.598Z,15.74
2019-04-14T14:43:59.330Z,15.90
2019-04-14T14:49:07.041Z,15.33
2019-04-14T14:54:14.710Z,15.01
2019-04-14T14:59:22.438Z,14.71
2019-04-14T15:04:30.038Z,14.14
2019-04-14T15:09:37.804Z,14.49
2019-04-14T15:14:45.483Z,15.38
2019-04-14T15:19:53.240Z,15.08
2019-04-14T15:25:01.059Z,13.85
2019-04-14T15:30:08.891Z,14.14
2019-04-14T15:35:16.825Z,14.32
2019-04-14T15:40:24.737Z,13.60
2019-04-14T15:45:32.652Z,13.32
2019-04-14T15:50:40.661Z,13.99
2019-04-14T15:55:48.619Z,13.89
2019-04-14T16:00:56.639Z,13.55
2019-04-14T16:06:04.544Z,12.91
2019-04-14T16:11:12.464Z,14.11
2019-04-14T16:16:20.393Z,13.25
2019-04-14T16:21:28.407Z,14.28
2019-04-14T16:26:36.333Z,13.60
2019-04-14T16:31:44.354Z,13.58
2019-04-14T16:36:52.270Z,13.65
2019-04-14T16:42:00.251Z,13.23
2019-04-14T16:47:08.203Z,12.86
2019-04-14T16:52:16.232Z,11.97
2019-04-14T16:57:24.144Z,12.43
2019-04-14T17:02:32.158Z,12.12
2019-04-14T17:07:40.463Z,12.39
2019-04-14T17:12:48.519Z,12.98
2019-04-14T17:17:56.620Z,13.68
2019-04-14T17:23:04.451Z,13.25
2019-04-14T17:28:12.368Z,12.22
2019-04-14T17:33:20.518Z,12.26
2019-04-14T17:38:28.401Z,12.77
2019-04-14T17:43:36.430Z,12.16
2019-04-14T17:48:44.338Z,12.69
2019-04-14T17:53:52.362Z,11.70
2019-04-14T17:59:00.287Z,11.79
2019-04-14T18:04:08.264Z,11.73
2019-04-14T18:09:16.212Z,11.52
2019-04-14T18:14:24.246Z,12.15
2019-04-14T18:19:32.266Z,12.34
2019-04-14T18:24:42.562Z,12.36
2019-04-14T18:29:48.246Z,11.64
2019-04-14T18:34:56.334Z,11.91
2019-04-14T18:40:04.346Z,12.75
2019-04-14T18:45:12.356Z,13.72
2019-04-14T18:50:20.304Z,12.67
2019-04-14T18:55:28.302Z,12.91
2019-04-14T19:00:36.222Z,12.31
2019-04-14T19:05:44.208Z,13.45
2019-04-14T19:10:52.162Z,12.75
2019-04-14T19:16:00.184Z,12.52
2019-04-14T19:21:08.088Z,12.15
2019-04-14T19:26:16.114Z,12.58
2019-04-14T19:31:24.029Z,13.07
2019-04-14T19:36:32.058Z,11.91
2019-04-14T19:41:39.991Z,13.27
2019-04-14T19:46:47.989Z,12.52
2019-04-14T19:51:55.912Z,12.63
2019-04-14T19:57:03.924Z,11.98
2019-04-14T20:02:11.854Z,11.18
2019-04-14T20:07:19.870Z,10.12
2019-04-14T20:12:27.784Z,8.61
2019-04-14T20:17:35.806Z,8.06
2019-04-14T20:22:43.722Z,8.25
2019-04-14T20:27:51.743Z,8.61
2019-04-14T20:32:59.649Z,8.02
2019-04-14T20:38:07.687Z,8.73
2019-04-14T20:43:15.453Z,9.54
2019-04-14T20:48:23.224Z,9.65
2019-04-14T20:53:30.888Z,9.08
2019-04-14T20:58:38.583Z,8.21
2019-04-14T21:03:46.185Z,7.98
2019-04-14T21:08:53.828Z,7.38
2019-04-14T21:14:01.418Z,7.77
2019-04-14T21:19:09.082Z,7.11
2019-04-14T21:24:16.681Z,7.77
2019-04-14T21:29:24.335Z,7.33
2019-04-14T21:34:31.951Z,7.67
2019-04-14T21:39:40.734Z,7.58
2019-04-14T21:44:46.702Z,8.08
2019-04-14T21:49:54.333Z,7.77
2019-04-14T21:55:02.151Z,7.94
2019-04-14T22:00:09.630Z,7.94
2019-04-14T22:05:17.233Z,8.38
2019-04-14T22:10:24.854Z,7.82
2019-04-14T22:15:32.450Z,7.77
2019-04-14T22:20:40.127Z,8.06
2019-04-14T22:25:47.733Z,7.43
2019-04-14T22:30:55.338Z,7.81
2019-04-14T22:36:02.962Z,8.11
2019-04-14T22:41:10.626Z,7.94
2019-04-14T22:46:18.220Z,7.49
2019-04-14T22:51:25.898Z,7.77
2019-04-14T22:56:39.607Z,7.33
2019-04-14T23:01:40.643Z,7.00
2019-04-14T23:06:48.233Z,8.01
2019-04-14T23:11:55.881Z,7.28
2019-04-14T23:17:03.484Z,7.17
2019-04-14T23:22:11.116Z,7.75
2019-04-14T23:27:18.712Z,7.52
2019-04-14T23:32:26.339Z,7.56
2019-04-14T23:37:33.922Z,7.58
2019-04-14T23:42:41.583Z,7.91
2019-04-14T23:47:49.165Z,8.69
2019-04-14T23:52:56.798Z,8.36
2019-04-14T23:58:04.374Z,7.89
